This is the latest recevied weather packets stored in our database for station/object N9DRW. If no packets are shown the sender has not sent any weather packets the latest 10 day(s).
| Time | Temp. | Humidity | Pressure | Rain* | Wind** | Luminosity | Snow |
|---|---|---|---|---|---|---|---|
| 1777354326 | 12.78° C | 85% | 0 hPa | 0 mm | - | - | - |
| 1777353726 | 12.78° C | 86% | 0 hPa | 0 mm | - | - | - |
| 1777353126 | 12.78° C | 88% | 0 hPa | 0 mm | - | - | - |
| 1777352526 | 12.78° C | 86% | 0 hPa | 0 mm | - | - | - |
| 1777351926 | 13.33° C | 87% | 0 hPa | 0 mm | - | - | - |
| 1777351326 | 13.33° C | 87% | 0 hPa | 0 mm | - | - | - |
| 1777350729 | 13.33° C | 88% | 0 hPa | 0 mm | - | - | - |
| 1777350126 | 13.89° C | 89% | 0 hPa | 0 mm | - | - | - |
| 1777349526 | 14.44° C | 88% | 0 hPa | 0 mm | - | - | - |
| 1777348926 | 15° C | 88% | 0 hPa | 0 mm | - | - | - |
| 1777348326 | 15° C | 87% | 0 hPa | 0 mm | - | - | - |
| 1777347726 | 15.56° C | 87% | 0 hPa | 0 mm | - | - | - |
| 1777347126 | 15.56° C | 86% | 0 hPa | 0 mm | - | - | - |
| 1777346527 | 15.56° C | 88% | 0 hPa | 0 mm | - | - | - |
| 1777345926 | 16.11° C | 88% | 0 hPa | 0 mm | - | - | - |
| 1777345326 | 16.11° C | 88% | 0 hPa | 0 mm | - | - | - |
| 1777344726 | 16.11° C | 89% | 0 hPa | 0.25 mm | - | - | - |
| 1777344126 | 16.11° C | 88% | 0 hPa | 1.27 mm | - | - | - |
| 1777343526 | 16.67° C | 89% | 0 hPa | 1.27 mm | - | - | - |
| 1777342926 | 16.67° C | 92% | 0 hPa | 1.27 mm | - | - | - |
| 1777342326 | 16.67° C | 92% | 0 hPa | 1.27 mm | - | - | - |
| 1777341726 | 16.67° C | 91% | 0 hPa | 1.27 mm | - | - | - |
| 1777341126 | 17.78° C | 87% | 0 hPa | 1.02 mm | - | - | - |
| 1777340526 | 18.89° C | 80% | 0 hPa | 0 mm | - | - | - |
| 1777339926 | 19.44° C | 76% | 0 hPa | 0 mm | - | - | - |
* Rain latest hour (hover to see other rain measurements)
** Current wind speed in m/s (hover to see current wind gust speed)